Terminal Aerodrome Forecast
Issued by NWS Grand Forks, ND

Home | Current Version | Previous Version | Graphics & Text | Print | Product List | Glossary On
Versions: 1 2 3 4 5 6 7 8 9 10 11 12 13 14 15 16 17 18 19
000
FTUS43 KFGF 150200 AAB
TAFFAR
TAF AMD
KFAR 150202Z 1502/1524 33012KT 3SM -DZ BR OVC004
     FM150400 33015KT 2SM -FZDZ BR OVC004
     FM151200 34020KT 2SM BR OVC005
     FM151700 35024G30KT 3/4SM BR OVC003=

USA.gov is the U.S. government's official web portal to all federal, state and local government web resources and services.